createdAt,value
2022-10-13T00:01:23.159Z,13.15
2022-10-13T00:03:51.513Z,13.07
2022-10-13T00:06:25.169Z,13.01
2022-10-13T00:08:54.584Z,12.93
2022-10-13T00:11:29.236Z,12.87
2022-10-13T00:14:01.709Z,12.81
2022-10-13T00:16:32.061Z,12.76
2022-10-13T00:19:00.269Z,12.71
2022-10-13T00:21:28.790Z,12.66
2022-10-13T00:23:56.931Z,12.61
2022-10-13T00:26:26.537Z,12.57
2022-10-13T00:28:56.626Z,12.49
2022-10-13T00:31:31.995Z,12.45
2022-10-13T00:34:01.604Z,12.40
2022-10-13T00:36:30.171Z,12.34
2022-10-13T00:38:58.912Z,12.28
2022-10-13T00:41:27.379Z,12.25
2022-10-13T00:44:26.425Z,12.23
2022-10-13T00:46:54.420Z,12.17
2022-10-13T00:49:22.481Z,12.13
2022-10-13T00:51:50.927Z,12.10
2022-10-13T00:54:24.741Z,12.08
2022-10-13T00:56:54.324Z,12.04
2022-10-13T00:59:27.555Z,12.03
2022-10-13T01:01:59.380Z,12.01
2022-10-13T01:04:34.291Z,11.98
2022-10-13T01:07:04.333Z,11.95
2022-10-13T01:09:37.682Z,11.93
2022-10-13T01:12:46.549Z,11.91
2022-10-13T01:15:38.677Z,11.89
2022-10-13T01:19:10.341Z,11.86
2022-10-13T01:22:39.652Z,11.81
2022-10-13T01:25:33.127Z,11.80
2022-10-13T01:28:34.735Z,11.77
2022-10-13T01:31:20.642Z,11.75
2022-10-13T01:34:20.978Z,11.76
2022-10-13T01:37:14.768Z,11.74
2022-10-13T01:39:47.573Z,11.75
2022-10-13T01:42:23.088Z,11.76
2022-10-13T01:44:58.540Z,11.76
2022-10-13T01:47:30.277Z,11.76
2022-10-13T01:50:00.523Z,11.76
2022-10-13T01:52:35.792Z,11.75
2022-10-13T01:55:10.516Z,11.73
2022-10-13T01:57:42.831Z,11.73
2022-10-13T02:00:22.600Z,11.73
2022-10-13T02:03:26.512Z,11.74
2022-10-13T02:06:12.797Z,11.72
2022-10-13T02:08:56.890Z,11.69
2022-10-13T02:11:25.463Z,11.71
2022-10-13T02:14:02.268Z,11.79
2022-10-13T02:16:41.076Z,11.91
2022-10-13T02:19:13.248Z,11.99
2022-10-13T02:21:41.932Z,12.06
2022-10-13T02:24:10.552Z,12.12
2022-10-13T02:26:38.776Z,12.19
2022-10-13T02:29:15.848Z,12.26
2022-10-13T02:31:45.617Z,12.33
2022-10-13T02:34:14.784Z,12.40
2022-10-13T02:36:43.752Z,12.47
2022-10-13T02:39:11.983Z,12.54
2022-10-13T02:41:40.136Z,12.57
2022-10-13T02:44:08.202Z,12.62
2022-10-13T02:46:37.638Z,12.69
2022-10-13T02:49:05.689Z,12.75
2022-10-13T02:51:38.930Z,12.80
2022-10-13T02:54:08.104Z,12.85
2022-10-13T02:56:36.182Z,12.88
2022-10-13T02:59:04.493Z,12.90
2022-10-13T03:01:33.030Z,12.92
2022-10-13T03:04:01.132Z,12.94
2022-10-13T03:06:29.247Z,12.95
2022-10-13T03:08:57.293Z,12.96
2022-10-13T03:11:25.490Z,12.98
2022-10-13T03:13:54.244Z,13.00
2022-10-13T03:16:22.537Z,13.03
2022-10-13T03:18:50.533Z,13.05
2022-10-13T03:21:18.554Z,13.07
2022-10-13T03:23:46.564Z,13.08
2022-10-13T03:26:15.612Z,13.09
2022-10-13T03:28:43.887Z,13.10
2022-10-13T03:31:12.776Z,13.11
2022-10-13T03:33:41.118Z,13.10
2022-10-13T03:36:10.825Z,13.11
2022-10-13T03:38:39.745Z,13.11
2022-10-13T03:41:16.091Z,13.15
2022-10-13T03:43:45.692Z,13.16
2022-10-13T03:46:17.019Z,13.18
2022-10-13T03:48:47.889Z,13.17
2022-10-13T03:51:21.077Z,13.19
2022-10-13T03:53:51.973Z,13.20
2022-10-13T03:56:23.849Z,13.19
2022-10-13T03:58:55.477Z,13.17
2022-10-13T04:01:26.792Z,13.18
2022-10-13T04:03:56.590Z,13.18
2022-10-13T04:06:26.217Z,13.21
2022-10-13T04:08:55.215Z,13.22
2022-10-13T04:11:23.923Z,13.23
2022-10-13T04:13:53.111Z,13.24
2022-10-13T04:16:24.289Z,13.25
2022-10-13T04:19:03.148Z,13.26
2022-10-13T04:21:34.332Z,13.27
2022-10-13T04:24:03.284Z,13.27
2022-10-13T04:26:35.152Z,13.28
2022-10-13T04:29:10.128Z,13.31
2022-10-13T04:31:40.486Z,13.31
2022-10-13T04:34:08.624Z,13.33
2022-10-13T04:36:36.950Z,13.35
2022-10-13T04:39:05.283Z,13.36
2022-10-13T04:41:34.385Z,13.34
2022-10-13T04:44:02.650Z,13.34
2022-10-13T04:46:30.853Z,13.35
2022-10-13T04:48:58.930Z,13.37
2022-10-13T04:51:30.355Z,13.38
2022-10-13T04:54:01.123Z,13.39
2022-10-13T04:56:29.444Z,13.39
2022-10-13T04:59:00.654Z,13.39
2022-10-13T05:01:28.696Z,13.39
2022-10-13T05:04:00.021Z,13.40
2022-10-13T05:06:34.520Z,13.39
2022-10-13T05:09:03.924Z,13.39
2022-10-13T05:11:32.956Z,13.34
2022-10-13T05:14:01.461Z,13.33
2022-10-13T05:16:31.191Z,13.31
2022-10-13T05:18:59.231Z,13.31
2022-10-13T05:21:29.318Z,13.29
2022-10-13T05:23:58.177Z,13.28
2022-10-13T05:26:29.834Z,13.30
2022-10-13T05:29:02.548Z,13.31
2022-10-13T05:31:33.584Z,13.30
2022-10-13T05:34:02.318Z,13.28
2022-10-13T05:36:34.884Z,13.28
2022-10-13T05:39:06.303Z,13.28
2022-10-13T05:41:34.576Z,13.25
2022-10-13T05:44:08.341Z,13.22
2022-10-13T05:46:38.353Z,13.17
2022-10-13T05:49:06.339Z,13.13
2022-10-13T05:51:39.923Z,13.09
2022-10-13T05:54:16.060Z,13.05
2022-10-13T05:57:19.339Z,13.02
2022-10-13T06:00:09.185Z,12.99
2022-10-13T06:03:09.168Z,12.96
2022-10-13T06:05:37.749Z,12.92
2022-10-13T06:08:05.805Z,12.90
2022-10-13T06:10:37.788Z,12.88
2022-10-13T06:13:05.832Z,12.85
2022-10-13T06:15:33.863Z,12.85
2022-10-13T06:18:02.369Z,12.81
2022-10-13T06:20:30.384Z,12.78
2022-10-13T06:22:58.443Z,12.75
2022-10-13T06:25:26.502Z,12.72
2022-10-13T06:27:54.596Z,12.70
2022-10-13T06:30:22.700Z,12.68
2022-10-13T06:32:50.712Z,12.67
2022-10-13T06:35:18.832Z,12.65
2022-10-13T06:37:48.662Z,12.63
2022-10-13T06:40:16.959Z,12.62
2022-10-13T06:42:51.026Z,12.62
2022-10-13T06:45:19.796Z,12.63
2022-10-13T06:47:47.798Z,12.61
2022-10-13T06:50:16.878Z,12.61
2022-10-13T06:52:44.929Z,12.60
2022-10-13T06:55:12.977Z,12.60
2022-10-13T06:57:41.020Z,12.61
2022-10-13T07:00:10.173Z,12.61
2022-10-13T07:02:38.711Z,12.61
2022-10-13T07:05:07.191Z,12.63
2022-10-13T07:07:35.261Z,12.63
2022-10-13T07:10:03.637Z,12.64
2022-10-13T07:12:31.650Z,12.65
2022-10-13T07:14:59.690Z,12.66
2022-10-13T07:17:27.826Z,12.67
2022-10-13T07:19:57.970Z,12.67
2022-10-13T07:22:26.939Z,12.68
2022-10-13T07:24:55.252Z,12.69
2022-10-13T07:27:24.770Z,12.71
2022-10-13T07:29:53.153Z,12.81
2022-10-13T07:32:21.116Z,12.89
2022-10-13T07:34:53.883Z,12.96
2022-10-13T07:37:22.157Z,13.04
2022-10-13T07:39:51.754Z,13.11
2022-10-13T07:42:19.779Z,13.20
2022-10-13T07:44:47.739Z,13.27
2022-10-13T07:47:15.700Z,13.36
2022-10-13T07:49:44.534Z,13.43
2022-10-13T07:52:12.505Z,13.50
2022-10-13T07:54:40.573Z,13.57
2022-10-13T07:57:09.135Z,13.63
2022-10-13T07:59:37.243Z,13.67
2022-10-13T08:02:05.254Z,13.73
2022-10-13T08:04:35.434Z,13.78
2022-10-13T08:07:05.806Z,13.84
2022-10-13T08:09:34.497Z,13.88
2022-10-13T08:12:02.548Z,13.89
2022-10-13T08:14:31.407Z,13.92
2022-10-13T08:16:59.546Z,13.96
2022-10-13T08:19:28.441Z,14.00
2022-10-13T08:21:58.652Z,14.03
2022-10-13T08:24:28.076Z,14.06
2022-10-13T08:26:56.451Z,14.06
2022-10-13T08:29:24.811Z,14.05
2022-10-13T08:31:54.284Z,14.07
2022-10-13T08:34:24.461Z,14.06
2022-10-13T08:36:54.739Z,14.07
2022-10-13T08:39:24.613Z,14.07
2022-10-13T08:41:54.238Z,14.08
2022-10-13T08:45:10.923Z,14.11
2022-10-13T08:47:45.056Z,14.15
2022-10-13T08:50:25.962Z,14.19
2022-10-13T08:53:04.870Z,14.23
2022-10-13T08:55:44.117Z,14.27
2022-10-13T08:58:24.322Z,14.28
2022-10-13T09:01:15.609Z,14.31
2022-10-13T09:04:02.301Z,14.29
2022-10-13T09:06:44.189Z,14.31
2022-10-13T09:09:16.337Z,14.35
2022-10-13T09:11:48.701Z,14.37
2022-10-13T09:14:27.362Z,14.40
2022-10-13T09:17:12.000Z,14.42
2022-10-13T09:19:40.964Z,14.46
2022-10-13T09:22:40.263Z,14.49
2022-10-13T09:25:11.093Z,14.52
2022-10-13T09:27:59.926Z,14.55
2022-10-13T09:30:38.373Z,14.60
2022-10-13T09:33:09.353Z,14.64
2022-10-13T09:35:43.889Z,14.69
2022-10-13T09:38:22.918Z,14.71
2022-10-13T09:41:09.221Z,14.73
2022-10-13T09:44:01.465Z,14.77
2022-10-13T09:46:55.346Z,14.81
2022-10-13T09:49:41.521Z,14.85
2022-10-13T09:52:12.765Z,14.89
2022-10-13T09:54:40.914Z,14.93
2022-10-13T09:57:22.016Z,14.98
2022-10-13T09:59:53.857Z,14.99
2022-10-13T10:02:32.694Z,14.98
2022-10-13T10:05:49.740Z,14.99
2022-10-13T10:08:51.265Z,14.99
2022-10-13T10:11:43.975Z,15.00
2022-10-13T10:14:36.812Z,15.03
2022-10-13T10:17:43.613Z,15.05
2022-10-13T10:20:54.996Z,15.08
2022-10-13T10:23:41.747Z,15.09
2022-10-13T10:26:31.644Z,15.11
2022-10-13T10:29:19.847Z,15.11
2022-10-13T10:32:00.096Z,15.14
2022-10-13T10:34:37.479Z,15.17
2022-10-13T10:37:08.487Z,15.22
2022-10-13T10:40:13.591Z,15.26
2022-10-13T10:42:51.941Z,15.26
2022-10-13T10:45:30.154Z,15.26
2022-10-13T10:48:07.040Z,15.24
2022-10-13T10:50:35.604Z,15.21
2022-10-13T10:53:29.391Z,15.21
2022-10-13T10:56:19.884Z,15.22
2022-10-13T10:58:53.868Z,15.23
2022-10-13T11:01:25.862Z,15.23
2022-10-13T11:04:32.946Z,15.23
2022-10-13T11:07:01.270Z,15.21
2022-10-13T11:09:41.510Z,15.19
2022-10-13T11:12:19.205Z,15.17
2022-10-13T11:14:48.444Z,15.17
2022-10-13T11:17:38.080Z,15.15
2022-10-13T11:20:26.418Z,15.14
2022-10-13T11:23:00.400Z,15.16
2022-10-13T11:25:48.881Z,15.24
2022-10-13T11:28:23.105Z,15.33
2022-10-13T11:31:17.955Z,15.39
2022-10-13T11:33:48.147Z,15.42
2022-10-13T11:36:49.815Z,15.47
2022-10-13T11:39:27.637Z,15.54
2022-10-13T11:42:12.441Z,15.62
2022-10-13T11:45:14.779Z,15.70
2022-10-13T11:48:14.932Z,15.76
2022-10-13T11:51:16.468Z,15.82
2022-10-13T11:54:08.504Z,15.85
2022-10-13T11:56:48.651Z,15.87
2022-10-13T11:59:19.942Z,15.91
2022-10-13T12:01:48.523Z,15.93
2022-10-13T12:04:16.547Z,15.96
2022-10-13T12:06:48.251Z,15.99
2022-10-13T12:09:19.551Z,16.01
2022-10-13T12:11:57.404Z,16.07
2022-10-13T12:14:45.826Z,16.11
2022-10-13T12:17:23.353Z,16.14
2022-10-13T12:20:01.063Z,16.17
2022-10-13T12:22:30.225Z,16.22
2022-10-13T12:25:07.266Z,16.27
2022-10-13T12:28:02.364Z,16.32
2022-10-13T12:30:37.816Z,16.35
2022-10-13T12:33:26.072Z,16.38
2022-10-13T12:35:55.046Z,16.39
2022-10-13T12:38:23.906Z,16.39
2022-10-13T12:40:53.766Z,16.38
2022-10-13T12:43:25.491Z,16.35
2022-10-13T12:45:53.791Z,16.30
2022-10-13T12:48:34.161Z,16.25
2022-10-13T12:51:25.271Z,16.18
2022-10-13T12:53:53.711Z,16.12
2022-10-13T12:56:33.178Z,16.07
2022-10-13T12:59:01.630Z,16.03
2022-10-13T13:01:35.284Z,15.97
2022-10-13T13:04:21.636Z,15.93
2022-10-13T13:06:59.063Z,15.88
2022-10-13T13:09:34.168Z,15.82
2022-10-13T13:12:11.384Z,15.79
2022-10-13T13:14:52.409Z,15.76
2022-10-13T13:20:33.116Z,15.67
2022-10-13T13:23:01.344Z,15.60
2022-10-13T13:25:29.568Z,15.55
2022-10-13T13:27:57.576Z,15.53
2022-10-13T13:30:26.534Z,15.51
2022-10-13T13:32:54.620Z,15.50
2022-10-13T13:35:22.653Z,15.49
2022-10-13T13:37:52.329Z,15.49
2022-10-13T13:40:24.953Z,15.48
2022-10-13T13:42:54.303Z,15.46
2022-10-13T13:45:25.413Z,15.44
2022-10-13T13:47:59.457Z,15.43
2022-10-13T13:50:34.432Z,15.43
2022-10-13T13:53:03.011Z,15.42
2022-10-13T13:55:31.630Z,15.42
2022-10-13T13:57:59.848Z,15.41
2022-10-13T14:00:27.939Z,15.42
2022-10-13T14:02:57.715Z,15.43
2022-10-13T14:05:26.574Z,15.45
2022-10-13T14:07:57.796Z,15.46
2022-10-13T14:10:26.617Z,15.46
2022-10-13T14:12:54.663Z,15.44
2022-10-13T14:15:27.194Z,15.43
2022-10-13T14:17:57.279Z,15.41
2022-10-13T14:20:25.411Z,15.41
2022-10-13T14:22:53.715Z,15.41
2022-10-13T14:25:22.262Z,15.40
2022-10-13T14:27:50.544Z,15.40
2022-10-13T14:30:18.627Z,15.39
2022-10-13T14:32:46.643Z,15.38
2022-10-13T14:35:14.740Z,15.38
2022-10-13T14:37:42.789Z,15.38
2022-10-13T14:40:11.101Z,15.39
2022-10-13T14:42:39.612Z,15.39
2022-10-13T14:45:09.688Z,15.41
2022-10-13T14:47:37.692Z,15.42
2022-10-13T14:50:06.480Z,15.43
2022-10-13T14:52:34.533Z,15.43
2022-10-13T14:55:02.666Z,15.40
2022-10-13T14:57:30.667Z,15.37
2022-10-13T15:00:01.936Z,15.34
2022-10-13T15:02:30.501Z,15.30
2022-10-13T15:04:58.552Z,15.29
2022-10-13T15:07:26.627Z,15.26
2022-10-13T15:10:04.961Z,15.23
2022-10-13T15:12:34.529Z,15.21
2022-10-13T15:15:02.965Z,15.17
2022-10-13T15:17:33.258Z,15.14
2022-10-13T15:20:01.349Z,15.10
2022-10-13T15:22:29.686Z,15.05
2022-10-13T15:24:57.904Z,15.05
2022-10-13T15:27:26.046Z,15.09
2022-10-13T15:29:54.161Z,15.13
2022-10-13T15:32:22.431Z,15.16
2022-10-13T15:34:55.872Z,15.19
2022-10-13T15:37:23.954Z,15.21
2022-10-13T15:39:56.918Z,15.24
2022-10-13T15:42:25.548Z,15.26
2022-10-13T15:45:10.733Z,15.28
2022-10-13T15:47:39.399Z,15.30
2022-10-13T15:50:09.120Z,15.31
2022-10-13T15:52:41.302Z,15.33
2022-10-13T15:55:11.996Z,15.34
2022-10-13T15:57:40.137Z,15.35
2022-10-13T16:00:10.891Z,15.35
2022-10-13T16:02:43.913Z,15.35
2022-10-13T16:05:13.101Z,15.35
2022-10-13T16:07:41.899Z,15.34
2022-10-13T16:10:13.957Z,15.32
2022-10-13T16:12:48.418Z,15.32
2022-10-13T16:15:18.324Z,15.30
2022-10-13T16:17:46.522Z,15.26
2022-10-13T16:20:14.596Z,15.22
2022-10-13T16:22:42.632Z,15.19
2022-10-13T16:25:11.744Z,15.16
2022-10-13T16:27:44.096Z,15.11
2022-10-13T16:30:12.910Z,15.07
2022-10-13T16:32:41.069Z,15.02
2022-10-13T16:35:09.401Z,14.99
2022-10-13T16:37:37.632Z,14.96
2022-10-13T16:40:06.329Z,14.89
2022-10-13T16:42:35.096Z,14.85
2022-10-13T16:45:03.937Z,14.81
2022-10-13T16:47:32.042Z,14.76
2022-10-13T16:50:00.030Z,14.72
2022-10-13T16:52:29.434Z,14.68
2022-10-13T16:54:57.450Z,14.66
2022-10-13T16:57:25.847Z,14.62
2022-10-13T16:59:54.417Z,14.58
2022-10-13T17:02:22.533Z,14.53
2022-10-13T17:04:50.598Z,14.50
2022-10-13T17:07:18.845Z,14.47
2022-10-13T17:09:47.249Z,14.45
2022-10-13T17:12:15.292Z,14.43
2022-10-13T17:14:43.311Z,14.40
2022-10-13T17:17:11.332Z,14.36
2022-10-13T17:19:39.328Z,14.30
2022-10-13T17:22:07.322Z,14.25
2022-10-13T17:24:35.348Z,14.20
2022-10-13T17:27:03.475Z,14.15
2022-10-13T17:29:31.611Z,14.09
2022-10-13T17:32:01.433Z,14.07
2022-10-13T17:34:29.556Z,14.04
2022-10-13T17:37:00.522Z,13.99
2022-10-13T17:39:28.620Z,13.94
2022-10-13T17:41:56.655Z,13.86
2022-10-13T17:44:24.670Z,13.79
2022-10-13T17:46:52.669Z,13.75
2022-10-13T17:49:20.717Z,13.72
2022-10-13T17:51:52.516Z,13.68
2022-10-13T17:54:22.439Z,13.63
2022-10-13T17:56:50.737Z,13.56
2022-10-13T17:59:18.775Z,13.51
2022-10-13T18:01:47.103Z,13.45
2022-10-13T18:04:19.061Z,13.35
2022-10-13T18:06:47.127Z,13.27
2022-10-13T18:09:23.176Z,13.22
2022-10-13T18:11:53.773Z,13.17
2022-10-13T18:14:24.557Z,13.12
2022-10-13T18:16:53.242Z,13.03
2022-10-13T18:19:22.073Z,12.96
2022-10-13T18:21:50.658Z,12.91
2022-10-13T18:24:19.038Z,12.86
2022-10-13T18:26:47.109Z,12.84
2022-10-13T18:29:15.186Z,12.81
2022-10-13T18:31:43.823Z,12.77
2022-10-13T18:34:15.999Z,12.72
2022-10-13T18:36:48.084Z,12.68
2022-10-13T18:39:22.610Z,12.64
2022-10-13T18:41:52.266Z,12.61
2022-10-13T18:44:21.416Z,12.57
2022-10-13T18:46:52.115Z,12.52
2022-10-13T18:49:23.194Z,12.48
2022-10-13T18:51:52.005Z,12.45
2022-10-13T18:54:20.379Z,12.40
2022-10-13T18:56:48.494Z,12.36
2022-10-13T18:59:17.655Z,12.31
2022-10-13T19:01:46.394Z,12.26
2022-10-13T19:04:16.208Z,12.22
2022-10-13T19:06:44.751Z,12.21
2022-10-13T19:09:15.193Z,12.16
2022-10-13T19:11:43.292Z,12.14
2022-10-13T19:14:13.898Z,12.10
2022-10-13T19:16:43.985Z,12.06
2022-10-13T19:19:12.694Z,12.04
2022-10-13T19:21:41.432Z,12.11
2022-10-13T19:24:10.262Z,12.15
2022-10-13T19:26:38.476Z,12.18
2022-10-13T19:29:13.446Z,12.21
2022-10-13T19:31:42.741Z,12.24
2022-10-13T19:34:12.473Z,12.27
2022-10-13T19:36:45.095Z,12.29
2022-10-13T19:39:18.334Z,12.32
2022-10-13T19:41:48.328Z,12.33
2022-10-13T19:44:18.195Z,12.32
2022-10-13T19:46:47.911Z,12.31
2022-10-13T19:49:19.152Z,12.31
2022-10-13T19:51:49.278Z,12.33
2022-10-13T19:54:20.861Z,12.37
2022-10-13T19:56:50.251Z,12.41
2022-10-13T19:59:18.948Z,12.42
2022-10-13T20:01:47.884Z,12.42
2022-10-13T20:04:18.624Z,12.42
2022-10-13T20:06:48.988Z,12.40
2022-10-13T20:09:18.852Z,12.36
2022-10-13T20:11:51.585Z,12.33
2022-10-13T20:14:19.931Z,12.33
2022-10-13T20:16:48.734Z,12.35
2022-10-13T20:19:19.407Z,12.38
2022-10-13T20:21:51.485Z,12.40
2022-10-13T20:24:23.128Z,12.39
2022-10-13T20:26:51.181Z,12.39
2022-10-13T20:29:23.199Z,12.41
2022-10-13T20:31:51.496Z,12.42
2022-10-13T20:34:19.537Z,12.41
2022-10-13T20:36:51.184Z,12.39
2022-10-13T20:39:20.268Z,12.39
2022-10-13T20:41:48.300Z,12.41
2022-10-13T20:44:16.329Z,12.44
2022-10-13T20:46:44.363Z,12.49
2022-10-13T20:49:13.472Z,12.51
2022-10-13T20:51:43.213Z,12.53
2022-10-13T20:54:14.283Z,12.56
2022-10-13T20:56:42.905Z,12.57
2022-10-13T20:59:14.642Z,12.57
2022-10-13T21:01:43.317Z,12.59
2022-10-13T21:04:11.667Z,12.58
2022-10-13T21:06:41.112Z,12.56
2022-10-13T21:09:10.370Z,12.55
2022-10-13T21:11:40.369Z,12.54
2022-10-13T21:14:09.716Z,12.56
2022-10-13T21:16:40.219Z,12.59
2022-10-13T21:19:10.290Z,12.59
2022-10-13T21:21:38.591Z,12.60
2022-10-13T21:24:08.376Z,12.63
2022-10-13T21:26:37.271Z,12.67
2022-10-13T21:29:06.101Z,12.68
2022-10-13T21:31:35.714Z,12.70
2022-10-13T21:34:04.278Z,12.70
2022-10-13T21:36:33.973Z,12.72
2022-10-13T21:39:06.018Z,12.73
2022-10-13T21:41:34.477Z,12.76
2022-10-13T21:44:03.548Z,12.78
2022-10-13T21:46:34.993Z,12.78
2022-10-13T21:49:05.829Z,12.78
2022-10-13T21:51:39.229Z,12.79
2022-10-13T21:54:13.400Z,12.80
2022-10-13T21:56:42.456Z,12.77
2022-10-13T21:59:12.787Z,12.69
2022-10-13T22:01:41.701Z,12.65
2022-10-13T22:04:14.382Z,12.62
2022-10-13T22:06:43.623Z,12.59
2022-10-13T22:09:12.366Z,12.55
2022-10-13T22:11:41.995Z,12.50
2022-10-13T22:14:13.425Z,12.45
2022-10-13T22:16:45.820Z,12.41
2022-10-13T22:19:16.568Z,12.36
2022-10-13T22:21:47.760Z,12.32
2022-10-13T22:24:21.652Z,12.29
2022-10-13T22:26:50.855Z,12.24
2022-10-13T22:29:21.833Z,12.20
2022-10-13T22:31:55.027Z,12.17
2022-10-13T22:34:23.448Z,12.13
2022-10-13T22:36:51.692Z,12.10
2022-10-13T22:39:19.710Z,12.05
2022-10-13T22:41:48.443Z,12.01
2022-10-13T22:44:16.673Z,11.97
2022-10-13T22:46:44.740Z,11.92
2022-10-13T22:49:14.660Z,11.88
2022-10-13T22:51:42.746Z,11.87
2022-10-13T22:54:12.450Z,11.81
2022-10-13T22:56:41.716Z,11.79
2022-10-13T22:59:11.004Z,11.78
2022-10-13T23:01:39.301Z,11.76
2022-10-13T23:04:07.296Z,11.74
2022-10-13T23:06:35.891Z,11.72
2022-10-13T23:09:11.948Z,11.70
2022-10-13T23:11:40.677Z,11.70
2022-10-13T23:14:12.087Z,11.70
2022-10-13T23:16:40.231Z,11.69
2022-10-13T23:19:08.656Z,11.67
2022-10-13T23:21:36.784Z,11.63
2022-10-13T23:24:07.176Z,11.60
2022-10-13T23:26:35.530Z,11.59
2022-10-13T23:29:05.244Z,11.57
2022-10-13T23:31:33.534Z,11.56
2022-10-13T23:34:01.864Z,11.56
2022-10-13T23:36:32.382Z,11.56
2022-10-13T23:39:04.595Z,11.56
2022-10-13T23:41:34.488Z,11.57
2022-10-13T23:44:02.553Z,11.61
2022-10-13T23:46:31.095Z,11.69
2022-10-13T23:48:59.205Z,11.77
2022-10-13T23:51:27.617Z,11.84
2022-10-13T23:53:56.198Z,11.90
2022-10-13T23:56:24.662Z,11.93
2022-10-13T23:58:52.726Z,11.95
